createdAt,value
2018-08-07T00:00:50.306Z,42.80
2018-08-07T00:03:19.647Z,42.70
2018-08-07T00:05:49.651Z,42.70
2018-08-07T00:08:17.546Z,42.70
2018-08-07T00:13:15.652Z,42.70
2018-08-07T00:15:45.862Z,42.60
2018-08-07T00:18:15.677Z,42.60
2018-08-07T00:20:44.563Z,42.70
2018-08-07T00:23:13.618Z,42.60
2018-08-07T00:25:43.059Z,42.60
2018-08-07T00:33:08.166Z,43.40
2018-08-07T00:35:37.147Z,43.10
2018-08-07T00:38:06.604Z,43.10
2018-08-07T00:40:35.778Z,43.40
2018-08-07T00:43:05.281Z,43.30
2018-08-07T00:45:37.573Z,43.40
2018-08-07T00:48:06.009Z,43.50
2018-08-07T00:50:34.878Z,43.40
2018-08-07T00:53:04.935Z,43.50
2018-08-07T00:55:33.565Z,44.00
2018-08-07T01:00:30.678Z,44.10
2018-08-07T01:02:59.795Z,43.80
2018-08-07T01:05:28.240Z,44.20
2018-08-07T01:07:57.438Z,43.80
2018-08-07T01:10:26.093Z,43.90
2018-08-07T01:15:24.979Z,43.80
2018-08-07T01:17:53.748Z,43.80
2018-08-07T01:30:15.512Z,45.50
2018-08-07T01:32:44.209Z,45.10
2018-08-07T01:35:12.247Z,44.80
2018-08-07T01:37:40.274Z,44.50
2018-08-07T01:40:10.830Z,45.40
2018-08-07T01:45:09.534Z,46.70
2018-08-07T01:47:38.645Z,46.30
2018-08-07T01:50:09.608Z,46.80
2018-08-07T01:52:39.320Z,47.20
2018-08-07T01:55:10.384Z,46.40
2018-08-07T01:57:38.961Z,46.00
2018-08-07T02:00:09.663Z,46.10
2018-08-07T02:02:38.474Z,46.00
2018-08-07T02:05:08.379Z,46.00
2018-08-07T02:07:37.585Z,46.10
2018-08-07T02:10:07.653Z,46.20
2018-08-07T02:12:36.076Z,45.80
2018-08-07T02:15:06.760Z,45.30
2018-08-07T02:17:34.748Z,45.40
2018-08-07T02:20:03.867Z,45.20
2018-08-07T02:22:33.379Z,45.80
2018-08-07T02:25:01.881Z,45.10
2018-08-07T02:27:30.946Z,45.00
2018-08-07T02:30:01.089Z,45.10
2018-08-07T02:32:29.952Z,45.10
2018-08-07T02:34:59.085Z,45.60
2018-08-07T02:37:27.705Z,45.70
2018-08-07T02:39:56.344Z,46.00
2018-08-07T02:42:24.282Z,46.10
2018-08-07T02:47:22.361Z,46.30
2018-08-07T02:49:51.746Z,46.40
2018-08-07T02:52:20.882Z,47.00
2018-08-07T02:54:49.530Z,46.80
2018-08-07T02:57:18.185Z,47.00
2018-08-07T02:59:48.681Z,47.80
2018-08-07T03:02:16.566Z,48.00
2018-08-07T03:04:46.046Z,48.80
2018-08-07T03:07:15.199Z,48.20
2018-08-07T03:12:10.832Z,47.90
2018-08-07T03:14:39.457Z,48.20
2018-08-07T03:17:07.228Z,51.50
2018-08-07T03:19:36.343Z,46.60
2018-08-07T03:22:06.390Z,46.20
2018-08-07T03:24:34.513Z,47.00
2018-08-07T03:27:05.101Z,46.80
2018-08-07T03:29:34.500Z,47.10
2018-08-07T03:32:04.457Z,48.00
2018-08-07T03:34:32.995Z,49.00
2018-08-07T03:37:02.856Z,49.40
2018-08-07T03:39:31.292Z,49.60
2018-08-07T03:41:59.736Z,49.50
2018-08-07T03:44:28.312Z,49.50
2018-08-07T03:49:26.722Z,50.10
2018-08-07T03:51:55.245Z,50.90
2018-08-07T03:54:24.063Z,50.50
2018-08-07T03:59:21.153Z,50.20
2018-08-07T04:01:51.037Z,49.70
2018-08-07T04:06:49.168Z,50.90
2018-08-07T04:09:19.819Z,50.40
2018-08-07T04:11:49.197Z,50.00
2018-08-07T04:14:17.755Z,49.60
2018-08-07T04:16:50.658Z,49.70
2018-08-07T04:19:19.106Z,48.90
2018-08-07T04:24:14.763Z,48.40
2018-08-07T04:26:43.868Z,48.50
2018-08-07T04:29:11.761Z,48.70
2018-08-07T04:31:40.273Z,48.50
2018-08-07T04:34:09.165Z,48.50
2018-08-07T04:36:37.811Z,48.00
2018-08-07T04:41:36.374Z,49.40
2018-08-07T04:44:07.218Z,47.90
2018-08-07T04:49:03.925Z,47.70
2018-08-07T04:51:33.355Z,47.30
2018-08-07T04:54:01.419Z,47.40
2018-08-07T04:56:30.899Z,48.30
2018-08-07T04:58:58.824Z,48.40
2018-08-07T05:01:28.651Z,48.60
2018-08-07T05:03:57.114Z,48.30
2018-08-07T05:06:27.293Z,48.30
2018-08-07T05:08:55.742Z,48.90
2018-08-07T05:11:25.286Z,48.70
2018-08-07T05:13:54.304Z,49.40
2018-08-07T05:16:23.435Z,49.70
2018-08-07T05:18:52.659Z,49.60
2018-08-07T05:21:20.650Z,49.70
2018-08-07T05:23:49.102Z,50.40
2018-08-07T05:26:17.906Z,49.90
2018-08-07T05:28:48.392Z,49.60
2018-08-07T05:31:17.508Z,50.00
2018-08-07T05:36:16.968Z,50.40
2018-08-07T05:38:47.397Z,49.70
2018-08-07T05:41:18.952Z,49.70
2018-08-07T05:43:47.730Z,49.90
2018-08-07T05:46:16.955Z,49.00
2018-08-07T05:48:46.607Z,48.60
2018-08-07T05:51:16.201Z,47.90
2018-08-07T05:53:43.955Z,47.80
2018-08-07T05:56:13.532Z,46.80
2018-08-07T05:58:42.017Z,46.50
2018-08-07T06:01:11.060Z,46.90
2018-08-07T06:03:41.245Z,47.40
2018-08-07T06:06:10.506Z,47.30
2018-08-07T06:08:38.413Z,47.30
2018-08-07T06:11:07.170Z,47.10
2018-08-07T06:13:37.084Z,47.00
2018-08-07T06:16:05.936Z,45.10
2018-08-07T06:21:02.162Z,46.20
2018-08-07T06:23:31.087Z,46.30
2018-08-07T06:25:59.787Z,46.20
2018-08-07T06:28:29.625Z,44.60
2018-08-07T06:30:58.857Z,44.60
2018-08-07T06:33:28.935Z,44.70
2018-08-07T06:35:58.921Z,46.60
2018-08-07T06:40:58.019Z,45.30
2018-08-07T06:43:26.646Z,44.60
2018-08-07T06:45:57.005Z,45.00
2018-08-07T06:48:26.106Z,44.50
2018-08-07T06:50:55.385Z,43.80
2018-08-07T06:53:23.914Z,43.10
2018-08-07T06:55:53.298Z,42.30
2018-08-07T07:05:46.595Z,42.30
2018-08-07T07:08:16.137Z,42.40
2018-08-07T07:10:45.834Z,42.50
2018-08-07T07:13:14.928Z,41.40
2018-08-07T07:15:44.530Z,41.80
2018-08-07T07:18:13.011Z,43.20
2018-08-07T07:23:10.516Z,42.70
2018-08-07T07:25:39.333Z,43.70
2018-08-07T07:28:07.936Z,43.00
2018-08-07T07:33:03.955Z,43.10
2018-08-07T07:38:00.947Z,43.20
2018-08-07T07:40:30.070Z,43.30
2018-08-07T07:42:59.388Z,42.70
2018-08-07T07:45:29.455Z,42.60
2018-08-07T07:47:59.814Z,42.60
2018-08-07T07:50:29.786Z,41.10
2018-08-07T07:52:58.195Z,40.10
2018-08-07T07:55:26.149Z,39.20
2018-08-07T07:57:55.953Z,39.60
2018-08-07T08:00:26.337Z,40.10
2018-08-07T08:02:56.222Z,41.60
2018-08-07T08:05:25.304Z,42.50
2018-08-07T08:07:54.571Z,43.10
2018-08-07T08:10:23.638Z,41.60
2018-08-07T08:12:53.346Z,42.40
2018-08-07T08:17:51.803Z,41.90
2018-08-07T08:20:25.373Z,42.00
2018-08-07T08:27:53.561Z,40.00
2018-08-07T08:30:22.847Z,40.20
2018-08-07T08:32:53.114Z,38.90
2018-08-07T08:35:24.096Z,38.50
2018-08-07T08:37:52.422Z,38.30
2018-08-07T08:40:21.941Z,39.10
2018-08-07T08:42:52.161Z,39.20
2018-08-07T08:45:21.960Z,38.00
2018-08-07T08:47:51.999Z,38.70
2018-08-07T08:50:21.564Z,39.20
2018-08-07T08:52:49.728Z,37.50
2018-08-07T08:55:18.288Z,38.30
2018-08-07T08:57:47.977Z,37.40
2018-08-07T09:00:25.656Z,37.20
2018-08-07T09:02:56.446Z,36.90
2018-08-07T09:05:25.365Z,36.80
2018-08-07T09:07:53.390Z,36.80
2018-08-07T09:10:24.034Z,38.40
2018-08-07T09:12:54.298Z,35.60
2018-08-07T09:15:26.755Z,34.80
2018-08-07T09:17:55.328Z,34.50
2018-08-07T09:20:26.827Z,35.10
2018-08-07T09:22:56.590Z,33.60
2018-08-07T09:25:27.081Z,34.70
2018-08-07T09:27:58.813Z,34.60
2018-08-07T09:30:28.051Z,34.50
2018-08-07T09:32:57.441Z,34.40
2018-08-07T09:35:26.531Z,34.80
2018-08-07T09:37:55.213Z,33.80
2018-08-07T09:40:26.130Z,34.00
2018-08-07T09:42:55.529Z,33.80
2018-08-07T09:45:29.021Z,33.10
2018-08-07T09:47:58.060Z,33.00
2018-08-07T09:50:27.926Z,33.80
2018-08-07T09:52:56.509Z,32.30
2018-08-07T09:55:24.726Z,32.30
2018-08-07T09:57:53.589Z,31.90
2018-08-07T10:00:27.484Z,31.70
2018-08-07T10:02:59.153Z,32.60
2018-08-07T10:05:28.620Z,31.20
2018-08-07T10:07:58.070Z,30.00
2018-08-07T10:10:28.063Z,30.20
2018-08-07T10:12:58.207Z,30.00
2018-08-07T10:15:27.349Z,31.30
2018-08-07T10:17:57.762Z,31.80
2018-08-07T10:20:25.870Z,31.00
2018-08-07T10:22:56.463Z,30.20
2018-08-07T10:25:24.935Z,30.70
2018-08-07T10:30:23.959Z,30.40
2018-08-07T10:45:57.193Z,30.50
2018-08-07T10:48:26.354Z,29.70
2018-08-07T10:50:55.095Z,29.80
2018-08-07T10:55:55.026Z,30.90
2018-08-07T10:58:25.664Z,30.40
2018-08-07T11:00:55.188Z,30.60
2018-08-07T11:03:24.149Z,30.80
2018-08-07T11:05:53.917Z,30.10
2018-08-07T11:08:22.012Z,30.00
2018-08-07T11:10:51.841Z,29.00
2018-08-07T11:13:21.056Z,29.60
2018-08-07T11:15:50.440Z,30.20
2018-08-07T11:18:20.811Z,30.70
2018-08-07T11:20:50.992Z,30.70
2018-08-07T11:23:19.692Z,30.80
2018-08-07T11:28:16.695Z,29.70
2018-08-07T11:30:47.224Z,29.90
2018-08-07T11:33:16.437Z,29.50
2018-08-07T11:35:46.301Z,29.20
2018-08-07T11:38:16.821Z,29.90
2018-08-07T11:40:45.719Z,29.90
2018-08-07T11:43:16.304Z,29.60
2018-08-07T11:45:45.272Z,29.70
2018-08-07T11:48:15.277Z,29.00
2018-08-07T11:50:44.772Z,29.30
2018-08-07T11:53:14.004Z,29.90
2018-08-07T11:55:44.148Z,30.40
2018-08-07T11:58:12.877Z,30.40
2018-08-07T12:00:42.128Z,30.70
2018-08-07T12:03:12.508Z,30.20
2018-08-07T12:05:42.285Z,30.70
2018-08-07T12:08:10.906Z,31.30
2018-08-07T12:10:40.762Z,31.50
2018-08-07T12:13:10.116Z,30.80
2018-08-07T12:15:38.694Z,30.30
2018-08-07T12:18:08.154Z,30.10
2018-08-07T12:20:36.803Z,30.60
2018-08-07T12:25:35.253Z,31.50
2018-08-07T12:28:06.224Z,31.70
2018-08-07T12:30:34.261Z,31.00
2018-08-07T12:33:03.010Z,30.90
2018-08-07T12:35:31.664Z,32.50
2018-08-07T12:38:02.343Z,33.00
2018-08-07T12:40:31.870Z,32.50
2018-08-07T12:43:02.484Z,33.00
2018-08-07T12:45:31.764Z,32.80
2018-08-07T12:48:00.172Z,33.50
2018-08-07T12:50:28.689Z,33.90
2018-08-07T12:52:57.573Z,32.70
2018-08-07T12:55:26.440Z,32.80
2018-08-07T12:57:56.982Z,33.50
2018-08-07T13:00:32.312Z,33.10
2018-08-07T13:03:00.929Z,33.40
2018-08-07T13:05:31.377Z,33.70
2018-08-07T13:08:01.207Z,33.50
2018-08-07T13:10:31.605Z,33.80
2018-08-07T13:13:01.568Z,34.50
2018-08-07T13:15:31.311Z,35.70
2018-08-07T13:18:00.907Z,35.90
2018-08-07T13:20:30.134Z,37.50
2018-08-07T13:22:58.474Z,36.30
2018-08-07T13:25:27.921Z,36.60
2018-08-07T13:27:55.993Z,36.70
2018-08-07T13:30:27.248Z,37.10
2018-08-07T13:32:57.918Z,36.80
2018-08-07T13:35:29.243Z,36.40
2018-08-07T13:37:57.397Z,35.60
2018-08-07T13:40:25.989Z,36.10
2018-08-07T13:42:55.628Z,36.20
2018-08-07T13:45:26.394Z,35.80
2018-08-07T13:47:55.948Z,36.10
2018-08-07T13:50:26.217Z,37.10
2018-08-07T13:52:57.399Z,38.20
2018-08-07T13:55:27.795Z,38.80
2018-08-07T13:57:56.413Z,38.70
2018-08-07T14:00:28.331Z,38.90
2018-08-07T14:02:57.670Z,39.40
2018-08-07T14:05:27.916Z,38.80
2018-08-07T14:10:26.635Z,39.70
2018-08-07T14:12:54.898Z,37.70
2018-08-07T14:17:56.418Z,37.10
2018-08-07T14:20:27.821Z,37.20
2018-08-07T14:25:30.280Z,36.00
2018-08-07T14:28:05.339Z,35.90
2018-08-07T14:30:35.214Z,36.30
2018-08-07T14:33:12.422Z,36.50
2018-08-07T14:35:45.595Z,36.60
2018-08-07T14:40:45.114Z,36.40
2018-08-07T14:43:15.359Z,35.90
2018-08-07T14:48:23.291Z,35.10
2018-08-07T14:53:21.856Z,31.70
2018-08-07T14:55:53.838Z,31.60
2018-08-07T14:58:23.925Z,32.10
2018-08-07T15:00:52.570Z,32.70
2018-08-07T15:03:26.889Z,32.90
2018-08-07T15:05:56.212Z,33.40
2018-08-07T15:08:25.735Z,33.40
2018-08-07T15:10:55.579Z,33.40
2018-08-07T15:13:25.606Z,33.10
2018-08-07T15:15:55.414Z,32.90
2018-08-07T15:20:54.921Z,33.70
2018-08-07T15:23:23.334Z,34.00
2018-08-07T15:25:52.751Z,34.40
2018-08-07T15:30:51.144Z,34.80
2018-08-07T15:33:22.745Z,35.60
2018-08-07T15:38:22.024Z,36.20
2018-08-07T15:40:53.651Z,35.30
2018-08-07T15:43:26.207Z,35.50
2018-08-07T15:45:56.052Z,36.20
2018-08-07T15:48:25.591Z,36.60
2018-08-07T16:08:13.029Z,39.20
2018-08-07T16:10:43.065Z,38.90
2018-08-07T16:13:14.377Z,38.90
2018-08-07T16:25:33.338Z,39.10
2018-08-07T16:28:02.211Z,39.80
2018-08-07T16:30:32.636Z,38.80
2018-08-07T16:33:02.717Z,39.00
2018-08-07T16:35:32.417Z,39.20
2018-08-07T16:38:01.723Z,38.90
2018-08-07T16:40:32.462Z,39.20
2018-08-07T16:43:01.773Z,38.80
2018-08-07T16:45:30.645Z,38.70
2018-08-07T16:47:59.693Z,39.00
2018-08-07T16:50:29.742Z,39.00
2018-08-07T16:52:58.715Z,39.00
2018-08-07T16:55:28.092Z,39.10
2018-08-07T17:00:25.918Z,39.70
2018-08-07T17:02:56.929Z,40.10
2018-08-07T17:05:26.753Z,39.80
2018-08-07T17:07:56.644Z,39.50
2018-08-07T17:10:27.853Z,39.50
2018-08-07T17:12:58.617Z,39.70
2018-08-07T17:15:29.583Z,39.80
2018-08-07T17:17:58.719Z,40.10
2018-08-07T17:20:29.693Z,39.60
2018-08-07T17:22:59.281Z,39.40
2018-08-07T17:25:28.230Z,39.40
2018-08-07T17:27:58.118Z,39.90
2018-08-07T17:30:29.059Z,39.70
2018-08-07T17:32:59.389Z,40.50
2018-08-07T17:35:28.804Z,40.70
2018-08-07T17:37:58.859Z,40.50
2018-08-07T17:40:28.027Z,39.80
2018-08-07T17:43:01.137Z,40.10
2018-08-07T17:45:31.403Z,39.70
2018-08-07T17:48:01.068Z,39.70
2018-08-07T17:50:29.895Z,40.50
2018-08-07T17:52:59.424Z,40.40
2018-08-07T17:55:28.329Z,39.40
2018-08-07T17:57:57.593Z,40.60
2018-08-07T18:00:28.060Z,40.10
2018-08-07T18:02:57.446Z,40.60
2018-08-07T18:07:56.835Z,40.20
2018-08-07T18:10:25.349Z,40.00
2018-08-07T18:25:57.931Z,39.60
2018-08-07T18:28:26.742Z,40.80
2018-08-07T18:30:55.270Z,41.40
2018-08-07T18:33:27.242Z,40.80
2018-08-07T18:35:56.939Z,40.70
2018-08-07T18:38:26.183Z,40.70
2018-08-07T18:40:55.790Z,40.60
2018-08-07T18:45:51.970Z,41.00
2018-08-07T18:48:20.595Z,41.40
2018-08-07T18:50:50.777Z,41.20
2018-08-07T18:53:19.501Z,40.90
2018-08-07T18:55:49.274Z,40.90
2018-08-07T18:58:19.076Z,41.20
2018-08-07T19:00:47.988Z,41.40
2018-08-07T19:03:17.104Z,41.90
2018-08-07T19:05:46.342Z,41.60
2018-08-07T19:08:14.884Z,41.60
2018-08-07T19:10:44.459Z,41.80
2018-08-07T19:13:13.084Z,41.90
2018-08-07T19:15:42.041Z,41.90
2018-08-07T19:18:11.389Z,41.90
2018-08-07T19:20:40.566Z,42.40
2018-08-07T19:23:09.437Z,42.50
2018-08-07T19:25:38.061Z,42.60
2018-08-07T19:30:36.495Z,43.70
2018-08-07T19:33:05.436Z,43.50
2018-08-07T19:35:33.399Z,43.20
2018-08-07T19:38:03.447Z,43.90
2018-08-07T19:40:32.125Z,43.50
2018-08-07T19:43:00.904Z,43.60
2018-08-07T19:55:21.158Z,44.30
2018-08-07T19:57:49.394Z,44.30
2018-08-07T20:00:19.808Z,45.20
2018-08-07T20:02:50.978Z,45.30
2018-08-07T20:05:19.302Z,46.10
2018-08-07T20:07:49.995Z,45.50
2018-08-07T20:10:18.659Z,46.50
2018-08-07T20:12:46.818Z,46.00
2018-08-07T20:15:19.348Z,46.40
2018-08-07T20:17:48.096Z,47.10
2018-08-07T20:20:18.083Z,47.80
2018-08-07T20:22:47.429Z,47.10
2018-08-07T20:25:16.701Z,46.90
2018-08-07T20:27:47.206Z,46.80
2018-08-07T20:31:09.655Z,47.10
2018-08-07T20:33:37.778Z,47.00
2018-08-07T20:36:07.503Z,47.10
2018-08-07T20:38:36.892Z,47.20
2018-08-07T20:41:05.673Z,47.20
2018-08-07T20:43:34.197Z,47.10
2018-08-07T20:46:02.368Z,47.40
2018-08-07T20:48:30.340Z,47.70
2018-08-07T20:50:58.298Z,47.80
2018-08-07T20:53:26.218Z,47.70
2018-08-07T20:55:55.513Z,47.80
2018-08-07T20:58:24.588Z,48.20
2018-08-07T21:00:53.243Z,48.90
2018-08-07T21:03:22.695Z,48.90
2018-08-07T21:05:51.472Z,48.80
2018-08-07T21:08:19.961Z,49.50
2018-08-07T21:10:48.756Z,49.40
2018-08-07T21:13:17.564Z,49.20
2018-08-07T21:15:46.672Z,49.60
2018-08-07T21:18:15.254Z,48.60
2018-08-07T21:20:45.141Z,49.10
2018-08-07T21:23:13.029Z,48.90
2018-08-07T21:25:41.762Z,48.90
2018-08-07T21:28:10.536Z,49.70
2018-08-07T21:30:38.911Z,48.90
2018-08-07T21:33:07.494Z,49.00
2018-08-07T21:35:36.101Z,49.70
2018-08-07T21:38:05.465Z,48.10
2018-08-07T21:40:34.815Z,47.70
2018-08-07T21:43:06.170Z,47.40
2018-08-07T21:45:35.998Z,47.60
2018-08-07T21:48:04.706Z,47.80
2018-08-07T21:50:33.896Z,46.70
2018-08-07T21:53:02.722Z,48.50
2018-08-07T21:55:31.409Z,48.00
2018-08-07T21:58:00.625Z,47.80
2018-08-07T22:00:35.026Z,47.20
2018-08-07T22:03:05.014Z,48.60
2018-08-07T22:05:33.044Z,49.00
2018-08-07T22:08:02.889Z,48.30
2018-08-07T22:10:31.878Z,48.40
2018-08-07T22:13:03.757Z,48.50
2018-08-07T22:15:32.152Z,47.80
2018-08-07T22:18:02.882Z,48.40
2018-08-07T22:20:32.116Z,48.00
2018-08-07T22:23:00.912Z,47.90
2018-08-07T22:28:02.659Z,48.20
2018-08-07T22:30:31.861Z,49.00
2018-08-07T22:35:29.253Z,49.20
2018-08-07T22:37:59.272Z,49.20
2018-08-07T22:40:27.867Z,49.30
2018-08-07T22:42:59.026Z,49.90
2018-08-07T22:45:27.727Z,49.60
2018-08-07T22:47:56.476Z,50.00
2018-08-07T22:50:25.238Z,49.70
2018-08-07T22:52:55.937Z,50.00
2018-08-07T22:55:23.768Z,49.60
2018-08-07T22:57:52.484Z,48.80
2018-08-07T23:00:21.386Z,49.30
2018-08-07T23:02:51.003Z,48.00
2018-08-07T23:05:19.755Z,47.50
2018-08-07T23:07:47.692Z,47.90
2018-08-07T23:10:20.995Z,48.40
2018-08-07T23:12:49.004Z,48.20
2018-08-07T23:17:47.301Z,48.20
2018-08-07T23:20:16.890Z,48.00
2018-08-07T23:22:44.748Z,47.90
2018-08-07T23:25:12.855Z,47.50
2018-08-07T23:27:42.555Z,46.40
2018-08-07T23:30:14.316Z,48.10
2018-08-07T23:32:43.682Z,46.40
2018-08-07T23:35:12.007Z,48.00
2018-08-07T23:37:39.910Z,46.40
2018-08-07T23:40:09.795Z,46.10
2018-08-07T23:42:37.845Z,46.70
2018-08-07T23:45:08.839Z,47.30
2018-08-07T23:47:37.013Z,46.90
2018-08-07T23:50:05.640Z,47.60
2018-08-07T23:52:34.112Z,47.90
2018-08-07T23:55:03.818Z,47.30
2018-08-07T23:57:31.592Z,46.60
